Etusivu
METAR-TAF:

METAR-TAF

Lentoasemat :

Adana, Turkki

Leveyspiiri: 36-59N, Pituuspiiri: 035-18E, korkeus merenpinnasta: 20 m

Tämänhetkinen sää

Tämä raportti tehtiin 50 minuuttia sitten, kello 18.50 UTC
Tuuli 4 kn etelästä
Lämpötila 16°C
Kosteus 82%
Ilmanpaine 1013 hPa
Näkyvyys 10 km tai enemmän
Hajanaisia pilviä 3500 ft:n korkeudessa
Hajonneita pilviä 10000 ft:n korkeudessa

METAR: LTAF 081850Z 19004KT 9999 SCT035 BKN100 16/13 Q1013 NOSIG RMK RWY23 21004KT

Aika: 22:40 (19:40 UTC)


TAF: puuttuu

Säähavainnot ja -ennusteet yli 4000 lentoasemalta (METAR- ja TAF-raportit).

Käytössä olevat sääasemat on merkitty karttaan keltaisilla ja punaisilla pisteillä.

Aseta hiiri pisteen päälle nähdäksesi sääaseman nimen.

Klikkaa sitten nähdäksesi säähavainnot ja -ennusteet.

Kartan vaihtaminen: klikkaa mustalla rastilla varustettuja vihreitä pisteitä, niin voit zoomata sisään; viivalla varustettua vihreää pistettä, niin voit zoomata ulos tai vihreitä nuolia, niin pääset viereisille kartoille.


METAR-TAF: